Amesville, Ohio
Current Conditions -  °F | °C
As of 12:35 AM on Thursday 18 Dec 2014 (Local Time) from KUNI Reporting Station
Overcast Overcast  
Wind Chill: 20°   Ceiling: 2000
Heat Index: 28°   Visibility: 10mi
Dew Point: 21°   Wind: 9mph
Humidity: 73%   Direction: 290°WNW
Pressure: 30.24"   Gusts: NA
Location:  39.4°N, 81.96°W
Report Text: KUNI 180535Z AUTO 29008KT 10SM OVC020 M02/M06 A3024 RMK AO2 T10201062
Loading
Personal Weather Stations






























Interactive Weather Map New forecast layout! Learn more

10-Day Weather Forecast

Advertisements
Track Severe Weather on mobile